Time;durP1;ratioP1;P1;durP2;ratioP2;P2;SDS_P1;SDS_P2;PMS_P1;PMS_P2;Temp;Humidity;BMP_temperature;BMP_pressure;BME280_temperature;BME280_humidity;BME280_pressure;Samples;Min_cycle;Max_cycle;Signal;HPM_P1;HPM_P2
2022/01/26 00:07:56;;;;;;;67.93;30.87;;;;;;;1.28;100.00;99612.56;5095709;28;20258;-65
2022/01/26 00:10:23;;;;;;;77.20;32.87;;;;;;;1.37;100.00;99613.31;5096466;28;20223;-65
2022/01/26 00:12:49;;;;;;;68.57;30.27;;;;;;;1.37;100.00;99617.66;5103973;28;20236;-65
2022/01/26 00:15:16;;;;;;;66.87;31.10;;;;;;;1.36;100.00;99608.97;5095487;28;20606;-65
2022/01/26 00:17:42;;;;;;;58.57;29.93;;;;;;;1.36;100.00;99613.34;5095760;28;20211;-65
2022/01/26 00:20:17;;;;;;;66.80;29.83;;;;;;;1.35;100.00;99614.22;5096340;28;20319;-65
2022/01/26 00:22:57;;;;;;;68.20;30.63;;;;;;;1.34;100.00;99621.16;5094483;28;20216;-65
2022/01/26 00:25:36;;;;;;;68.30;29.63;;;;;;;1.35;100.00;99617.66;5095486;28;20236;-65
2022/01/26 00:28:32;;;;;;;64.80;29.80;;;;;;;1.32;100.00;99615.09;5096199;28;20215;-65
2022/01/26 00:32:56;;;;;;;64.63;30.73;;;;;;;1.34;100.00;99617.66;5094840;28;20736;-65
2022/01/26 00:38:34;;;;;;;66.43;29.77;;;;;;;1.32;100.00;99617.72;5096405;28;20217;-65
2022/01/26 00:39:50;;;;;;;65.93;29.37;;;;;;;1.27;100.00;99616.88;5096066;28;20545;-65
2022/01/26 00:42:17;;;;;;;76.20;31.43;;;;;;;1.32;100.00;99619.44;5097454;28;20241;-65
2022/01/26 00:44:47;;;;;;;66.87;29.50;;;;;;;1.29;100.00;99617.72;5095496;28;20210;-65
2022/01/26 00:47:14;;;;;;;73.73;30.00;;;;;;;1.31;100.00;99613.38;5095660;28;20215;-65
2022/01/26 00:49:41;;;;;;;69.70;29.53;;;;;;;1.26;100.00;99617.75;5094759;28;20242;-65
2022/01/26 00:52:12;;;;;;;67.43;32.43;;;;;;;1.10;100.00;99623.13;5097157;28;20252;-65
2022/01/26 00:54:39;;;;;;;64.90;29.07;;;;;;;1.08;100.00;99615.31;5084593;28;20217;-64
2022/01/26 00:57:05;;;;;;;63.70;28.37;;;;;;;1.04;100.00;99618.81;5094901;28;20218;-65
2022/01/26 00:59:33;;;;;;;58.80;27.83;;;;;;;1.08;100.00;99615.31;5096098;28;20738;-65
2022/01/26 01:02:00;;;;;;;56.50;26.83;;;;;;;1.06;100.00;99622.25;5096404;28;20225;-65
2022/01/26 01:04:27;;;;;;;56.47;27.20;;;;;;;1.04;100.00;99624.00;5095366;28;20220;-65
2022/01/26 01:06:58;;;;;;;62.50;29.07;;;;;;;1.08;100.00;99619.66;5095113;28;20211;-65
2022/01/26 01:09:25;;;;;;;67.77;30.63;;;;;;;1.06;100.00;99624.84;5096859;28;20278;-65
2022/01/26 01:11:56;;;;;;;63.27;27.67;;;;;;;1.06;100.00;99621.41;5096058;28;20261;-65
2022/01/26 01:14:23;;;;;;;61.30;29.50;;;;;;;1.10;100.00;99623.13;5083596;28;20222;-65
2022/01/26 01:16:52;;;;;;;67.33;30.80;;;;;;;1.04;100.00;99621.41;5095023;28;20211;-65
2022/01/26 01:19:30;;;;;;;68.03;28.93;;;;;;;1.06;100.00;99616.19;5096779;28;20284;-66
2022/01/26 01:30:24;;;;;;;68.07;28.50;;;;;;;1.02;100.00;99619.69;5088947;28;20222;-65
2022/01/26 01:32:54;;;;;;;66.03;28.40;;;;;;;1.07;100.00;99615.31;5098596;28;20210;-65
2022/01/26 01:35:22;;;;;;;62.20;27.13;;;;;;;1.03;100.00;99622.28;5096518;28;20221;-65
2022/01/26 01:37:49;;;;;;;58.53;28.07;;;;;;;1.01;100.00;99623.19;5098592;28;20214;-65
2022/01/26 01:40:16;;;;;;;55.83;26.03;;;;;;;0.91;100.00;99630.19;5098424;28;20246;-65
2022/01/26 01:42:42;;;;;;;59.33;27.73;;;;;;;0.80;100.00;99632.00;5096784;28;20569;-65
2022/01/26 01:45:09;;;;;;;51.93;25.90;;;;;;;0.75;100.00;99620.75;5100591;28;20207;-65
2022/01/26 01:47:36;;;;;;;60.33;25.60;;;;;;;0.61;100.00;99626.94;5098432;28;20222;-65
2022/01/26 01:50:09;;;;;;;50.77;24.90;;;;;;;0.56;100.00;99624.34;5098367;28;20218;-65
2022/01/26 01:52:36;;;;;;;40.53;22.87;;;;;;;0.61;100.00;99638.22;5098817;28;20769;-65
2022/01/26 01:55:05;;;;;;;44.27;23.83;;;;;;;0.57;100.00;99633.03;5100064;28;20586;-65
2022/01/26 01:57:32;;;;;;;52.00;24.53;;;;;;;0.60;100.00;99631.28;5098278;28;20246;-65
2022/01/26 01:59:58;;;;;;;52.43;27.00;;;;;;;0.58;100.00;99629.56;5096489;28;20238;-65
2022/01/26 02:02:25;;;;;;;44.07;21.83;;;;;;;0.64;100.00;99632.13;5095829;28;20669;-65
2022/01/26 02:04:51;;;;;;;43.83;23.43;;;;;;;0.45;100.00;99641.75;5098745;28;20207;-65
2022/01/26 02:07:19;;;;;;;43.83;23.07;;;;;;;0.37;100.00;99643.53;5094891;28;20224;-65
2022/01/26 02:09:45;;;;;;;35.47;19.13;;;;;;;0.20;100.00;99640.16;5096399;28;20221;-65
2022/01/26 02:12:15;;;;;;;40.30;19.17;;;;;;;0.09;100.00;99636.75;5098804;28;20686;-65
2022/01/26 02:14:46;;;;;;;35.80;18.97;;;;;;;0.03;100.00;99643.69;5099288;28;20265;-65
2022/01/26 02:17:31;;;;;;;34.83;18.53;;;;;;;0.07;100.00;99633.28;5097455;28;20695;-65
2022/01/26 02:20:32;;;;;;;34.47;18.33;;;;;;;0.08;100.00;99634.16;5097373;28;20246;-65
2022/01/26 02:53:26;;;;;;;38.30;18.30;;;;;;;0.28;100.00;99622.78;5079239;28;20221;-65
2022/01/26 02:55:56;;;;;;;40.60;19.30;;;;;;;0.30;100.00;99621.03;5100152;28;20220;-65
2022/01/26 02:58:45;;;;;;;42.17;20.33;;;;;;;0.30;100.00;99610.66;5096984;28;20217;-65
2022/01/26 03:01:42;;;;;;;40.50;18.33;;;;;;;0.30;100.00;99618.44;5094994;28;20217;-65
2022/01/26 03:04:15;;;;;;;38.23;18.50;;;;;;;0.39;100.00;99622.75;5094409;28;20218;-65
2022/01/26 03:06:48;;;;;;;37.83;17.93;;;;;;;0.36;100.00;99621.00;5096869;28;20288;-65
2022/01/26 03:09:22;;;;;;;44.10;19.17;;;;;;;0.27;100.00;99615.00;5097224;28;20229;-65
2022/01/26 03:11:49;;;;;;;41.30;18.90;;;;;;;0.29;100.00;99616.72;5097889;28;20206;-65
2022/01/26 03:14:25;;;;;;;39.40;19.27;;;;;;;0.32;100.00;99621.03;5085452;28;20220;-65
2022/01/26 03:16:57;;;;;;;40.10;18.10;;;;;;;0.30;100.00;99614.97;5096673;28;20217;-65
2022/01/26 03:19:32;;;;;;;45.73;21.00;;;;;;;0.36;100.00;99621.00;5099143;28;20317;-65
2022/01/26 03:22:19;;;;;;;45.80;19.43;;;;;;;0.32;100.00;99608.88;5096599;28;20236;-65
2022/01/26 03:30:32;;;;;;;39.83;19.77;;;;;;;0.31;100.00;99621.91;5087532;28;20218;-64
2022/01/26 03:33:11;;;;;;;38.90;19.50;;;;;;;0.43;100.00;99620.09;5097913;28;20216;-65
2022/01/26 03:35:46;;;;;;;42.07;19.93;;;;;;;0.27;100.00;99628.00;5083263;28;20222;-64
2022/01/26 03:38:19;;;;;;;42.57;20.90;;;;;;;0.21;100.00;99621.09;5096574;28;20277;-64
2022/01/26 03:40:56;;;;;;;45.33;20.07;;;;;;;0.22;100.00;99620.22;5096855;28;20639;-65
2022/01/26 03:43:22;;;;;;;48.27;21.93;;;;;;;0.21;100.00;99628.91;5096503;28;20229;-65
2022/01/26 03:45:49;;;;;;;52.03;22.27;;;;;;;0.14;100.00;99632.38;5095928;28;20213;-65
2022/01/26 03:48:15;;;;;;;48.33;21.33;;;;;;;0.14;100.00;99632.38;5096156;28;20214;-65
2022/01/26 03:50:42;;;;;;;44.60;21.30;;;;;;;0.16;100.00;99628.06;5097603;28;20218;-65
2022/01/26 03:53:08;;;;;;;43.00;19.77;;;;;;;0.16;100.00;99633.25;5095447;28;20226;-64
2022/01/26 03:55:35;;;;;;;42.87;20.77;;;;;;;0.11;100.00;99629.81;5096169;28;20222;-64
2022/01/26 03:58:03;;;;;;;46.40;19.83;;;;;;;0.09;100.00;99628.97;5095847;28;20218;-65
2022/01/26 04:00:29;;;;;;;48.47;21.43;;;;;;;0.10;100.00;99622.00;5097073;28;20245;-65
2022/01/26 04:02:55;;;;;;;47.23;21.33;;;;;;;0.15;100.00;99620.25;5097257;28;20210;-64
2022/01/26 04:05:23;;;;;;;52.70;21.80;;;;;;;0.17;100.00;99628.91;5095970;28;20217;-65
2022/01/26 04:07:55;;;;;;;48.63;21.10;;;;;;;0.12;100.00;99626.31;5095771;28;20214;-64
2022/01/26 04:10:32;;;;;;;48.73;20.83;;;;;;;0.04;100.00;99633.31;5097053;28;20743;-65
2022/01/26 04:12:59;;;;;;;46.60;20.70;;;;;;;0.10;100.00;99632.41;5099676;28;20638;-64
2022/01/26 04:15:31;;;;;;;47.33;22.53;;;;;;;0.11;100.00;99628.94;5095531;28;20608;-64
2022/01/26 04:17:58;;;;;;;46.57;20.67;;;;;;;0.10;100.00;99633.28;5094914;28;20239;-64
2022/01/26 04:20:31;;;;;;;47.70;21.87;;;;;;;0.12;100.00;99628.94;5097545;28;20237;-64
2022/01/26 04:23:09;;;;;;;45.33;21.60;;;;;;;0.05;100.00;99624.63;5095757;28;20211;-65
2022/01/26 04:25:36;;;;;;;48.20;20.97;;;;;;;0.10;100.00;99617.69;5095740;28;20217;-64
2022/01/26 04:28:07;;;;;;;50.97;21.20;;;;;;;0.17;100.00;99618.50;5097161;28;20211;-64
2022/01/26 04:30:35;;;;;;;49.90;22.00;;;;;;;0.22;100.00;99617.63;5096015;28;20248;-64
2022/01/26 04:33:04;;;;;;;47.93;20.00;;;;;;;0.25;100.00;99617.59;5095624;28;20226;-64
2022/01/26 04:35:31;;;;;;;54.43;22.80;;;;;;;0.27;100.00;99615.88;5095591;28;20244;-64
2022/01/26 04:38:13;;;;;;;49.93;21.53;;;;;;;0.30;100.00;99612.38;5097210;28;20226;-64
2022/01/26 04:40:46;;;;;;;44.27;21.23;;;;;;;0.34;100.00;99612.38;5083101;28;20242;-65
2022/01/26 04:43:17;;;;;;;48.87;21.40;;;;;;;0.38;100.00;99606.25;5088344;28;20215;-64
2022/01/26 04:45:45;;;;;;;47.83;21.77;;;;;;;0.37;100.00;99601.94;5095062;28;20229;-64
2022/01/26 04:48:12;;;;;;;46.50;21.13;;;;;;;0.36;100.00;99602.81;5096334;28;20217;-64
2022/01/26 04:50:38;;;;;;;54.93;22.80;;;;;;;0.37;100.00;99603.69;5084193;28;20664;-64
2022/01/26 04:53:05;;;;;;;45.27;21.77;;;;;;;0.35;100.00;99595.88;5095539;28;20214;-65
2022/01/26 04:55:31;;;;;;;52.00;22.57;;;;;;;0.39;100.00;99594.13;5096231;28;20221;-65
2022/01/26 04:57:58;;;;;;;48.60;22.37;;;;;;;0.44;100.00;99589.78;5097808;28;20221;-64
2022/01/26 05:00:24;;;;;;;44.17;21.40;;;;;;;0.44;100.00;99587.16;5099284;28;20255;-65
2022/01/26 05:02:52;;;;;;;51.83;22.63;;;;;;;0.44;100.00;99590.63;5099431;28;20218;-65
2022/01/26 05:05:18;;;;;;;50.63;21.97;;;;;;;0.46;100.00;99598.41;5099774;28;20211;-65
2022/01/26 05:07:45;;;;;;;49.50;21.27;;;;;;;0.49;100.00;99598.41;5100937;28;20210;-64
2022/01/26 05:10:13;;;;;;;49.33;22.20;;;;;;;0.49;100.00;99607.06;5098965;28;20668;-64
2022/01/26 05:12:40;;;;;;;49.10;22.00;;;;;;;0.47;100.00;99601.00;5097371;28;20729;-64
2022/01/26 05:15:07;;;;;;;45.17;20.60;;;;;;;0.49;100.00;99606.22;5099347;28;20609;-65
2022/01/26 05:17:35;;;;;;;49.23;22.30;;;;;;;0.48;100.00;99610.53;5100898;28;20214;-64
2022/01/26 05:20:03;;;;;;;44.97;21.50;;;;;;;0.52;100.00;99607.06;5098561;28;20324;-64
2022/01/26 05:22:32;;;;;;;44.97;21.20;;;;;;;0.53;100.00;99613.97;5098878;28;20557;-64
2022/01/26 05:24:58;;;;;;;53.77;21.93;;;;;;;0.54;100.00;99610.50;5099348;28;20222;-64
2022/01/26 05:27:24;;;;;;;48.43;21.40;;;;;;;0.52;100.00;99598.38;5100470;28;20210;-64
2022/01/26 05:29:51;;;;;;;50.10;21.03;;;;;;;0.52;100.00;99595.78;5098782;28;20217;-65
2022/01/26 05:32:19;;;;;;;52.90;21.03;;;;;;;0.51;100.00;99594.91;5098924;28;20213;-65
2022/01/26 05:34:46;;;;;;;52.60;21.87;;;;;;;0.52;100.00;99591.44;5098609;28;20328;-64
2022/01/26 05:37:13;;;;;;;48.20;21.03;;;;;;;0.51;100.00;99594.91;5099176;28;20599;-64
2022/01/26 05:39:40;;;;;;;51.43;22.57;;;;;;;0.49;100.00;99593.22;5098471;28;20226;-64
2022/01/26 05:42:08;;;;;;;49.70;21.60;;;;;;;0.49;100.00;99591.47;5098618;28;20578;-64
2022/01/26 05:44:35;;;;;;;53.43;22.70;;;;;;;0.47;100.00;99592.34;5098192;28;20215;-64
2022/01/26 05:47:02;;;;;;;49.67;21.90;;;;;;;0.47;100.00;99593.22;5095713;28;20217;-64
2022/01/26 05:49:29;;;;;;;48.90;20.97;;;;;;;0.51;100.00;99597.50;5098320;28;20215;-64
2022/01/26 05:51:55;;;;;;;49.90;21.20;;;;;;;0.52;100.00;99598.38;5098415;28;20214;-64
2022/01/26 05:54:23;;;;;;;55.70;20.93;;;;;;;0.53;100.00;99602.69;5098336;28;20222;-64
2022/01/26 05:56:49;;;;;;;49.13;21.10;;;;;;;0.54;100.00;99609.63;5094210;28;20206;-64
2022/01/26 05:59:17;;;;;;;43.20;19.20;;;;;;;0.54;100.00;99605.31;5098095;28;20222;-64
2022/01/26 06:01:44;;;;;;;52.20;21.13;;;;;;;0.53;100.00;99594.91;5098106;28;20303;-64
2022/01/26 06:04:10;;;;;;;47.13;21.17;;;;;;;0.54;100.00;99597.50;5096565;28;20210;-64
2022/01/26 06:06:37;;;;;;;49.83;21.97;;;;;;;0.56;100.00;99598.34;5100857;28;20444;-64
2022/01/26 06:09:03;;;;;;;57.00;21.33;;;;;;;0.57;100.00;99594.00;5097272;28;20223;-64
2022/01/26 06:11:31;;;;;;;43.83;20.67;;;;;;;0.53;100.00;99587.09;5098673;28;20211;-64
2022/01/26 06:13:57;;;;;;;47.43;20.27;;;;;;;0.56;100.00;99598.34;5102714;28;20207;-64
2022/01/26 06:16:24;;;;;;;45.57;20.90;;;;;;;0.56;100.00;99593.13;5100678;28;20238;-64
2022/01/26 06:18:51;;;;;;;45.93;20.10;;;;;;;0.57;100.00;99591.41;5097579;28;20211;-64
2022/01/26 06:21:17;;;;;;;43.67;19.87;;;;;;;0.58;100.00;99594.00;5097840;28;20257;-64
2022/01/26 06:23:44;;;;;;;44.30;19.37;;;;;;;0.54;100.00;99594.91;5097814;28;20226;-64
2022/01/26 06:26:11;;;;;;;44.17;19.70;;;;;;;0.51;100.00;99584.50;5099761;28;20293;-64
2022/01/26 06:28:38;;;;;;;47.97;20.13;;;;;;;0.57;100.00;99591.41;5086599;28;20221;-64
2022/01/26 06:31:10;;;;;;;50.30;21.00;;;;;;;0.56;100.00;99582.72;5095721;28;20563;-64
2022/01/26 06:33:36;;;;;;;46.83;20.10;;;;;;;0.57;100.00;99588.81;5097370;28;20219;-64
2022/01/26 06:36:04;;;;;;;45.60;20.40;;;;;;;0.57;100.00;99583.63;5099803;28;20302;-64
2022/01/26 06:38:31;;;;;;;48.37;20.87;;;;;;;0.57;100.00;99574.06;5097144;28;20297;-64
2022/01/26 06:41:00;;;;;;;48.07;20.47;;;;;;;0.61;100.00;99578.38;5097311;28;20252;-64
2022/01/26 06:43:29;;;;;;;48.73;21.40;;;;;;;0.61;100.00;99586.16;5097072;28;20267;-64
2022/01/26 06:46:01;;;;;;;45.40;19.90;;;;;;;0.60;100.00;99587.06;5099571;28;20213;-64
2022/01/26 06:48:43;;;;;;;46.67;19.13;;;;;;;0.62;100.00;99574.03;5097231;28;20285;-64
2022/01/26 06:51:11;;;;;;;51.53;21.13;;;;;;;0.62;100.00;99587.91;5097290;28;20301;-64
2022/01/26 06:53:38;;;;;;;46.50;21.07;;;;;;;0.65;100.00;99595.69;5099079;28;20313;-64
2022/01/26 06:56:05;;;;;;;48.80;21.13;;;;;;;0.60;100.00;99587.06;5095857;28;20676;-64
2022/01/26 06:58:31;;;;;;;49.03;21.50;;;;;;;0.59;100.00;99593.13;5097072;28;20225;-64
2022/01/26 07:00:59;;;;;;;45.43;20.37;;;;;;;0.61;100.00;99596.59;5096783;28;20473;-64
2022/01/26 07:03:25;;;;;;;43.60;19.27;;;;;;;0.57;100.00;99594.84;5098329;28;20223;-65
2022/01/26 07:05:52;;;;;;;47.37;20.20;;;;;;;0.54;100.00;99594.03;5097586;28;20223;-65
2022/01/26 07:08:19;;;;;;;48.23;20.73;;;;;;;0.56;100.00;99598.34;5096873;28;20284;-65
2022/01/26 07:10:47;;;;;;;45.43;19.47;;;;;;;0.57;100.00;99594.84;5095261;28;20206;-64
2022/01/26 07:13:13;;;;;;;43.60;21.20;;;;;;;0.57;100.00;99600.06;5095399;28;20203;-64
2022/01/26 07:21:25;;;;;;;49.67;20.83;;;;;;;0.57;100.00;99610.47;5097396;28;20725;-64
2022/01/26 07:23:52;;;;;;;45.60;20.77;;;;;;;0.56;100.00;99619.16;5095015;28;20271;-64
2022/01/26 07:26:19;;;;;;;50.47;21.47;;;;;;;0.66;100.00;99613.03;5096419;28;20207;-64
2022/01/26 07:28:45;;;;;;;46.07;20.47;;;;;;;0.65;100.00;99607.81;5096576;28;20214;-64
2022/01/26 07:31:13;;;;;;;46.00;19.27;;;;;;;0.66;100.00;99610.44;5098990;28;20683;-64
2022/01/26 07:33:42;;;;;;;48.80;21.03;;;;;;;0.66;100.00;99625.16;5096265;28;20220;-64
2022/01/26 07:36:08;;;;;;;46.50;20.27;;;;;;;0.64;100.00;99627.78;5096357;28;20214;-64
2022/01/26 07:38:35;;;;;;;46.47;21.40;;;;;;;0.63;100.00;99628.63;5096263;28;20668;-64
2022/01/26 07:41:02;;;;;;;52.27;22.33;;;;;;;0.69;100.00;99631.19;5098620;28;20248;-64
2022/01/26 07:43:28;;;;;;;51.73;22.07;;;;;;;0.68;100.00;99633.84;5095941;28;20233;-64
2022/01/26 07:45:55;;;;;;;48.37;22.20;;;;;;;0.66;100.00;99636.44;5096305;28;20215;-64
2022/01/26 07:48:22;;;;;;;51.47;22.47;;;;;;;0.70;100.00;99638.16;5094648;28;20681;-64
2022/01/26 07:50:51;;;;;;;58.37;23.43;;;;;;;0.65;100.00;99650.34;5098803;28;20217;-64
2022/01/26 07:53:18;;;;;;;49.97;23.93;;;;;;;0.62;100.00;99633.88;5095712;28;20408;-64
2022/01/26 07:55:44;;;;;;;53.77;22.60;;;;;;;0.57;100.00;99639.09;5096106;28;20241;-64
2022/01/26 07:58:12;;;;;;;52.87;22.93;;;;;;;0.61;100.00;99652.97;5095972;28;20254;-64
2022/01/26 08:00:39;;;;;;;58.87;22.60;;;;;;;0.57;100.00;99641.69;5098513;28;20238;-64
2022/01/26 08:03:05;;;;;;;50.30;22.07;;;;;;;0.61;100.00;99653.81;5095886;28;20214;-64
2022/01/26 08:05:32;;;;;;;56.03;23.27;;;;;;;0.58;100.00;99647.75;5096003;28;20554;-64
2022/01/26 08:07:59;;;;;;;52.03;22.43;;;;;;;0.57;100.00;99662.50;5095980;28;20583;-64
2022/01/26 08:10:26;;;;;;;50.20;22.70;;;;;;;0.60;100.00;99667.69;5098167;28;20206;-64
2022/01/26 08:12:52;;;;;;;49.90;21.93;;;;;;;0.55;100.00;99661.66;5101330;28;20578;-64
2022/01/26 08:15:19;;;;;;;53.13;22.87;;;;;;;0.48;100.00;99667.75;5094222;28;20243;-64
2022/01/26 08:17:45;;;;;;;48.90;21.47;;;;;;;0.47;100.00;99660.84;5095712;28;20215;-64
2022/01/26 08:20:12;;;;;;;49.13;22.60;;;;;;;0.49;100.00;99653.03;5096436;28;20590;-64
2022/01/26 08:22:39;;;;;;;39.60;20.30;;;;;;;0.50;100.00;99663.41;5090962;28;20246;-64
2022/01/26 08:25:09;;;;;;;46.57;21.17;;;;;;;0.57;100.00;99674.66;5094452;28;20232;-64
2022/01/26 08:27:40;;;;;;;55.80;22.37;;;;;;;0.62;100.00;99678.94;5092338;28;20640;-64
2022/01/26 08:30:10;;;;;;;50.37;21.87;;;;;;;0.55;100.00;99685.06;5093815;28;20225;-64
2022/01/26 08:32:37;;;;;;;45.87;19.73;;;;;;;0.51;100.00;99680.75;5075915;28;20264;-64
2022/01/26 08:35:04;;;;;;;47.70;21.57;;;;;;;0.49;100.00;99686.84;5090088;28;20624;-64
2022/01/26 08:37:30;;;;;;;49.97;21.60;;;;;;;0.51;100.00;99683.34;5095867;28;20236;-65
2022/01/26 08:39:57;;;;;;;50.73;21.07;;;;;;;0.56;100.00;99685.94;5096051;28;20214;-65
2022/01/26 08:42:25;;;;;;;49.60;21.80;;;;;;;0.42;100.00;99673.00;5096641;28;20238;-65
2022/01/26 08:44:52;;;;;;;44.27;20.17;;;;;;;0.47;100.00;99676.44;5096401;28;20288;-65
2022/01/26 08:47:19;;;;;;;43.53;20.73;;;;;;;0.50;100.00;99692.03;5096828;28;20210;-65
2022/01/26 08:49:45;;;;;;;45.47;21.37;;;;;;;0.51;100.00;99683.34;5097802;28;20210;-64
2022/01/26 08:52:12;;;;;;;46.07;20.37;;;;;;;0.56;100.00;99681.59;5095690;28;20212;-65
2022/01/26 08:54:38;;;;;;;53.77;23.57;;;;;;;0.53;100.00;99684.22;5096790;28;20213;-64
2022/01/26 08:57:05;;;;;;;48.00;21.70;;;;;;;0.47;100.00;99676.44;5096716;28;20215;-65
2022/01/26 08:59:33;;;;;;;51.30;21.97;;;;;;;0.53;100.00;99672.94;5094617;28;20239;-65
2022/01/26 09:01:59;;;;;;;45.03;20.73;;;;;;;0.57;100.00;99683.31;5096060;28;20238;-65
2022/01/26 09:04:27;;;;;;;48.80;20.83;;;;;;;0.50;100.00;99681.63;5096658;28;20211;-65
2022/01/26 09:06:56;;;;;;;48.23;20.40;;;;;;;0.48;100.00;99691.16;5093810;28;20231;-65
2022/01/26 09:09:23;;;;;;;47.63;21.07;;;;;;;0.48;100.00;99698.97;5095395;28;20692;-64
2022/01/26 09:11:51;;;;;;;46.07;20.93;;;;;;;0.48;100.00;99704.19;5099532;28;20294;-64
2022/01/26 09:14:21;;;;;;;39.97;19.67;;;;;;;0.44;100.00;99701.59;5103340;28;20685;-64
2022/01/26 09:16:52;;;;;;;38.93;17.73;;;;;;;0.45;100.00;99698.13;5096412;28;20221;-65
2022/01/26 09:19:26;;;;;;;38.87;18.63;;;;;;;0.49;100.00;99705.91;5096899;28;20597;-65
2022/01/26 09:21:53;;;;;;;40.63;17.77;;;;;;;0.48;100.00;99704.19;5094928;28;20287;-65
2022/01/26 09:24:20;;;;;;;42.93;19.50;;;;;;;0.51;100.00;99687.69;5096147;28;20207;-65
2022/01/26 09:26:47;;;;;;;38.40;18.20;;;;;;;0.53;100.00;99696.34;5096150;28;20639;-65
2022/01/26 09:29:13;;;;;;;39.53;18.60;;;;;;;0.67;100.00;99704.94;5096479;28;20604;-65
2022/01/26 09:31:42;;;;;;;39.57;18.20;;;;;;;0.58;100.00;99695.47;5091118;28;20210;-64
2022/01/26 09:34:09;;;;;;;35.73;18.70;;;;;;;0.56;100.00;99696.34;5076581;28;20309;-65
2022/01/26 09:36:36;;;;;;;41.03;19.60;;;;;;;0.55;100.00;99705.88;5092770;28;20676;-65
2022/01/26 09:39:03;;;;;;;37.87;18.03;;;;;;;0.50;100.00;99697.22;5097471;28;20579;-66
2022/01/26 09:41:29;;;;;;;40.10;19.00;;;;;;;0.56;100.00;99692.00;5096042;28;20238;-65
2022/01/26 09:43:56;;;;;;;35.57;16.67;;;;;;;0.57;100.00;99672.91;5094658;28;20214;-65
2022/01/26 09:46:22;;;;;;;37.30;17.63;;;;;;;0.63;100.00;99675.47;5096349;28;20211;-65
2022/01/26 09:48:49;;;;;;;36.20;16.57;;;;;;;0.68;100.00;99668.50;5098261;28;20250;-65
2022/01/26 09:51:19;;;;;;;31.90;16.57;;;;;;;0.78;100.00;99662.38;5096944;28;20221;-66
2022/01/26 09:53:46;;;;;;;37.50;17.70;;;;;;;0.84;100.00;99656.25;5096807;28;20225;-66
2022/01/26 09:56:12;;;;;;;34.40;17.13;;;;;;;0.91;100.00;99664.03;5097044;28;20210;-66
2022/01/26 09:58:39;;;;;;;34.87;16.47;;;;;;;0.96;100.00;99666.59;5096255;28;20583;-67
2022/01/26 10:01:06;;;;;;;33.67;16.40;;;;;;;0.96;100.00;99667.47;5096718;28;20208;-66
2022/01/26 10:03:34;;;;;;;37.03;17.80;;;;;;;0.91;100.00;99664.03;5096691;28;20679;-66
2022/01/26 10:06:01;;;;;;;31.40;16.03;;;;;;;0.97;100.00;99653.56;5092343;28;20684;-66
2022/01/26 10:19:43;;;;;;;33.47;17.53;;;;;;;1.10;100.00;99634.38;5096449;28;20215;-66
2022/01/26 10:22:10;;;;;;;35.17;18.03;;;;;;;1.10;100.00;99650.00;5096068;28;20613;-66
2022/01/26 10:24:37;;;;;;;33.30;16.83;;;;;;;1.17;100.00;99646.47;5095102;28;20216;-66
2022/01/26 10:27:04;;;;;;;36.97;17.17;;;;;;;1.20;100.00;99646.47;5095842;28;20242;-67
2022/01/26 10:29:33;;;;;;;36.60;17.87;;;;;;;1.25;100.00;99649.91;5096269;28;20211;-67
2022/01/26 10:32:11;;;;;;;35.60;17.80;;;;;;;1.27;100.00;99634.22;5096052;28;20218;-67
2022/01/26 10:34:38;;;;;;;38.67;18.87;;;;;;;1.37;100.00;99633.28;5096222;28;20207;-66
2022/01/26 10:37:04;;;;;;;34.17;17.03;;;;;;;1.36;100.00;99629.81;5095958;28;20219;-66
2022/01/26 10:39:36;;;;;;;35.67;19.07;;;;;;;1.38;100.00;99635.88;5096263;28;20288;-66
2022/01/26 10:42:09;;;;;;;36.47;17.70;;;;;;;1.40;100.00;99647.16;5094910;28;20246;-66
2022/01/26 10:44:41;;;;;;;41.80;19.17;;;;;;;1.38;100.00;99648.91;5095759;28;20242;-66
2022/01/26 10:47:10;;;;;;;41.10;18.87;;;;;;;1.32;100.00;99648.97;5085115;28;20250;-66
2022/01/26 10:49:56;;;;;;;40.30;18.73;;;;;;;1.24;100.00;99657.72;5096225;28;20219;-66
2022/01/26 10:52:32;;;;;;;37.30;18.20;;;;;;;1.24;100.00;99668.97;5093968;28;20256;-66
2022/01/26 10:54:58;;;;;;;35.60;18.13;;;;;;;1.22;100.00;99680.31;5094766;28;20293;-66
2022/01/26 10:57:26;;;;;;;36.27;17.97;;;;;;;1.22;100.00;99686.38;5096609;28;20238;-67
2022/01/26 10:59:53;;;;;;;37.30;18.27;;;;;;;1.19;100.00;99680.31;5109212;28;20219;-66
2022/01/26 11:02:24;;;;;;;35.70;17.97;;;;;;;1.21;100.00;99683.75;5095367;28;20726;-67
2022/01/26 11:04:51;;;;;;;35.03;17.93;;;;;;;1.11;100.00;99688.19;5090107;28;20242;-66
2022/01/26 11:07:17;;;;;;;38.83;19.40;;;;;;;0.90;100.00;99685.75;5089799;28;20211;-65
2022/01/26 11:09:46;;;;;;;40.43;19.37;;;;;;;0.99;100.00;99690.88;5089342;28;20214;-66
2022/01/26 11:12:15;;;;;;;35.23;16.80;;;;;;;0.97;100.00;99695.22;5094855;28;20706;-65
2022/01/26 11:14:46;;;;;;;37.83;18.80;;;;;;;0.84;100.00;99687.50;5090148;28;20254;-65
2022/01/26 11:17:26;;;;;;;39.50;19.13;;;;;;;0.79;100.00;99700.53;5088751;28;20210;-65
2022/01/26 11:19:55;;;;;;;37.60;17.03;;;;;;;0.72;100.00;99708.38;5089190;28;20217;-65
2022/01/26 11:22:27;;;;;;;36.43;17.20;;;;;;;0.66;100.00;99687.59;5085258;28;20249;-65
2022/01/26 11:24:54;;;;;;;33.50;17.33;;;;;;;0.64;100.00;99681.56;5094131;28;20741;-65
2022/01/26 11:27:21;;;;;;;37.10;17.77;;;;;;;0.57;100.00;99682.47;5095510;28;20218;-65
2022/01/26 11:29:54;;;;;;;38.80;16.67;;;;;;;0.66;100.00;99683.28;5095160;28;20213;-65
2022/01/26 11:32:28;;;;;;;35.67;17.53;;;;;;;0.66;100.00;99688.47;5095067;28;20222;-65
2022/01/26 11:34:56;;;;;;;35.83;17.90;;;;;;;0.63;100.00;99678.06;5095907;28;20711;-65
2022/01/26 11:37:35;;;;;;;35.30;17.13;;;;;;;0.62;100.00;99668.53;5094779;28;20221;-65
2022/01/26 11:45:35;;;;;;;38.13;16.80;;;;;;;0.54;100.00;99682.47;5094758;28;20495;-65
2022/01/26 11:48:05;;;;;;;34.23;16.33;;;;;;;0.51;100.00;99678.13;5094461;28;20240;-65
2022/01/26 11:50:33;;;;;;;33.23;17.40;;;;;;;0.55;100.00;99664.25;5095534;28;20297;-65
2022/01/26 11:53:01;;;;;;;39.13;17.73;;;;;;;0.59;100.00;99665.09;5081091;28;20601;-65
2022/01/26 11:55:36;;;;;;;34.37;15.90;;;;;;;0.56;100.00;99676.38;5094628;28;20609;-64
2022/01/26 11:58:07;;;;;;;34.93;16.10;;;;;;;0.55;100.00;99664.25;5094695;28;20272;-65
2022/01/26 12:00:40;;;;;;;37.87;17.77;;;;;;;0.46;100.00;99664.31;5094642;28;20214;-64
2022/01/26 12:03:10;;;;;;;33.27;16.47;;;;;;;0.45;100.00;99669.53;5084213;28;20256;-65
2022/01/26 12:05:46;;;;;;;36.63;16.47;;;;;;;0.43;100.00;99668.66;5094408;28;20695;-65
2022/01/26 12:08:13;;;;;;;29.90;15.73;;;;;;;0.60;100.00;99654.69;5095148;28;20215;-65
2022/01/26 12:10:44;;;;;;;31.83;15.43;;;;;;;0.66;100.00;99662.47;5079236;28;20582;-65
2022/01/26 12:13:15;;;;;;;31.90;15.03;;;;;;;0.59;100.00;99658.19;5097887;28;20219;-65
2022/01/26 12:15:49;;;;;;;35.63;16.93;;;;;;;0.53;100.00;99659.94;5094312;28;20692;-65
2022/01/26 12:18:25;;;;;;;36.70;15.80;;;;;;;0.55;100.00;99669.44;5095002;28;20316;-65
2022/01/26 12:32:39;;;;;;;29.63;15.57;;;;;;;0.77;100.00;99649.38;5080449;28;20578;-64
2022/01/26 12:35:19;;;;;;;34.60;16.83;;;;;;;0.72;100.00;99652.03;5092381;28;20264;-65
2022/01/26 12:37:55;;;;;;;30.80;16.10;;;;;;;0.84;100.00;99654.53;5095211;28;20221;-65
2022/01/26 12:43:11;;;;;;;32.50;15.37;;;;;;;1.02;100.00;99650.94;5093837;28;20248;-65
2022/01/26 12:45:38;;;;;;;30.20;15.83;;;;;;;1.03;100.00;99650.94;5095274;28;20211;-64
2022/01/26 12:48:09;;;;;;;29.17;14.63;;;;;;;1.11;100.00;99659.53;5093861;28;20213;-65
2022/01/26 12:50:36;;;;;;;33.17;16.00;;;;;;;1.08;100.00;99658.69;5094182;28;20257;-64
2022/01/26 12:53:02;;;;;;;32.67;16.37;;;;;;;0.99;100.00;99657.03;5094136;28;20230;-65
2022/01/26 12:55:30;;;;;;;29.00;14.60;;;;;;;1.21;100.00;99663.81;5095311;28;20218;-65
2022/01/26 12:57:57;;;;;;;30.37;15.97;;;;;;;1.24;100.00;99661.16;5094028;28;20223;-65